createdAt,value
2019-02-18T00:00:22.964Z,6.03
2019-02-18T00:01:22.963Z,5.98
2019-02-18T00:02:22.946Z,6.02
2019-02-18T00:03:22.943Z,6.02
2019-02-18T00:04:22.933Z,5.90
2019-02-18T00:05:22.949Z,6.01
2019-02-18T00:06:22.910Z,5.95
2019-02-18T00:07:22.890Z,5.96
2019-02-18T00:08:22.884Z,5.92
2019-02-18T00:09:22.880Z,5.93
2019-02-18T00:10:22.889Z,5.87
2019-02-18T00:11:22.853Z,5.88
2019-02-18T00:12:22.843Z,5.88
2019-02-18T00:13:22.858Z,5.83
2019-02-18T00:14:22.821Z,5.83
2019-02-18T00:15:22.817Z,5.83
2019-02-18T00:16:22.820Z,5.84
2019-02-18T00:17:22.787Z,5.78
2019-02-18T00:18:22.782Z,5.74
2019-02-18T00:19:22.762Z,5.81
2019-02-18T00:20:22.754Z,5.78
2019-02-18T00:21:22.787Z,5.75
2019-02-18T00:22:22.744Z,5.83
2019-02-18T00:23:22.725Z,5.75
2019-02-18T00:24:22.732Z,5.75
2019-02-18T00:25:22.699Z,5.74
2019-02-18T00:26:22.727Z,5.78
2019-02-18T00:27:22.690Z,5.77
2019-02-18T00:28:22.694Z,5.75
2019-02-18T00:29:22.655Z,5.74
2019-02-18T00:30:22.642Z,5.73
2019-02-18T00:31:22.644Z,5.74
2019-02-18T00:32:22.643Z,5.69
2019-02-18T00:33:22.634Z,5.73
2019-02-18T00:34:22.600Z,5.70
2019-02-18T00:35:22.595Z,5.67
2019-02-18T00:36:22.630Z,5.67
2019-02-18T00:37:24.725Z,5.65
2019-02-18T00:38:22.569Z,5.65
2019-02-18T00:39:22.554Z,5.56
2019-02-18T00:40:22.544Z,5.56
2019-02-18T00:41:22.541Z,5.60
2019-02-18T00:42:22.551Z,5.52
2019-02-18T00:43:22.512Z,5.67
2019-02-18T00:44:22.510Z,5.49
2019-02-18T00:45:22.489Z,5.56
2019-02-18T00:46:22.484Z,5.58
2019-02-18T00:47:22.491Z,5.65
2019-02-18T00:48:22.531Z,5.59
2019-02-18T00:49:22.450Z,5.59
2019-02-18T00:50:22.450Z,5.60
2019-02-18T00:51:22.434Z,5.60
2019-02-18T00:52:22.410Z,5.51
2019-02-18T00:53:22.424Z,5.56
2019-02-18T00:54:22.389Z,5.49
2019-02-18T00:55:22.380Z,5.49
2019-02-18T00:56:22.387Z,5.55
2019-02-18T00:57:22.379Z,5.47
2019-02-18T00:58:22.347Z,5.52
2019-02-18T00:59:22.382Z,5.44
2019-02-18T01:00:22.327Z,5.45
2019-02-18T01:01:22.325Z,5.44
2019-02-18T01:02:22.309Z,5.45
2019-02-18T01:03:22.305Z,5.42
2019-02-18T01:04:22.283Z,5.45
2019-02-18T01:05:22.313Z,5.44
2019-02-18T01:06:22.270Z,5.41
2019-02-18T01:07:22.266Z,5.32
2019-02-18T01:08:22.253Z,5.38
2019-02-18T01:09:22.251Z,5.26
2019-02-18T01:10:22.230Z,5.32
2019-02-18T01:11:22.261Z,5.23
2019-02-18T01:12:22.206Z,5.22
2019-02-18T01:13:22.196Z,5.23
2019-02-18T01:14:22.194Z,5.23
2019-02-18T01:15:22.168Z,5.24
2019-02-18T01:16:22.189Z,5.30
2019-02-18T01:17:22.162Z,5.15
2019-02-18T01:18:22.145Z,5.17
2019-02-18T01:19:22.131Z,5.20
2019-02-18T01:20:22.127Z,5.22
2019-02-18T01:21:22.121Z,5.20
2019-02-18T01:22:22.130Z,5.11
2019-02-18T01:23:22.084Z,5.15
2019-02-18T01:24:22.085Z,5.11
2019-02-18T01:25:22.076Z,5.14
2019-02-18T01:26:22.071Z,5.12
2019-02-18T01:27:22.058Z,5.19
2019-02-18T01:28:22.078Z,5.05
2019-02-18T01:29:22.030Z,5.20
2019-02-18T01:30:22.017Z,5.12
2019-02-18T01:31:22.016Z,5.04
2019-02-18T01:32:22.018Z,5.09
2019-02-18T01:33:22.030Z,5.06
2019-02-18T01:34:21.973Z,5.06
2019-02-18T01:35:21.963Z,4.99
2019-02-18T01:36:23.148Z,5.02
2019-02-18T01:37:21.953Z,5.01
2019-02-18T01:38:21.950Z,4.97
2019-02-18T01:39:21.943Z,4.97
2019-02-18T01:40:21.912Z,4.96
2019-02-18T01:41:21.929Z,4.94
2019-02-18T01:42:21.893Z,4.94
2019-02-18T01:43:21.887Z,5.01
2019-02-18T01:44:21.892Z,4.93
2019-02-18T01:45:21.932Z,4.96
2019-02-18T01:46:21.846Z,4.96
2019-02-18T01:47:21.838Z,4.97
2019-02-18T01:48:21.818Z,4.99
2019-02-18T01:49:21.841Z,4.96
2019-02-18T01:50:21.813Z,4.99
2019-02-18T01:51:21.816Z,4.96
2019-02-18T01:52:21.790Z,5.02
2019-02-18T01:53:21.773Z,4.94
2019-02-18T01:54:21.766Z,4.96
2019-02-18T01:55:21.759Z,4.94
2019-02-18T01:56:21.752Z,4.99
2019-02-18T01:57:21.730Z,4.94
2019-02-18T01:58:21.716Z,4.94
2019-02-18T01:59:21.705Z,4.86
2019-02-18T02:00:21.718Z,4.94
2019-02-18T02:01:21.686Z,4.94
2019-02-18T02:02:21.693Z,4.96
2019-02-18T02:03:21.661Z,4.93
2019-02-18T02:04:21.671Z,4.96
2019-02-18T02:05:21.673Z,4.97
2019-02-18T02:06:21.635Z,4.90
2019-02-18T02:07:21.630Z,4.97
2019-02-18T02:08:21.628Z,4.91
2019-02-18T02:09:21.599Z,4.93
2019-02-18T02:10:21.587Z,4.87
2019-02-18T02:11:21.611Z,4.87
2019-02-18T02:12:21.599Z,4.93
2019-02-18T02:13:21.583Z,4.94
2019-02-18T02:14:21.567Z,4.88
2019-02-18T02:15:21.541Z,4.87
2019-02-18T02:16:21.545Z,4.90
2019-02-18T02:17:21.541Z,4.87
2019-02-18T02:18:21.517Z,4.84
2019-02-18T02:19:21.499Z,4.88
2019-02-18T02:20:21.498Z,4.72
2019-02-18T02:21:21.510Z,4.72
2019-02-18T02:22:21.455Z,4.75
2019-02-18T02:23:21.473Z,4.80
2019-02-18T02:24:21.453Z,4.67
2019-02-18T02:25:21.437Z,4.71
2019-02-18T02:26:21.418Z,4.68
2019-02-18T02:27:21.422Z,4.75
2019-02-18T02:28:21.440Z,4.74
2019-02-18T02:29:21.390Z,4.68
2019-02-18T02:30:21.386Z,4.67
2019-02-18T02:31:21.378Z,4.64
2019-02-18T02:32:21.359Z,4.57
2019-02-18T02:33:21.341Z,4.56
2019-02-18T02:34:21.364Z,4.56
2019-02-18T02:35:21.333Z,4.61
2019-02-18T02:36:21.352Z,4.68
2019-02-18T02:37:21.300Z,4.62
2019-02-18T02:38:21.293Z,4.61
2019-02-18T02:39:21.294Z,4.56
2019-02-18T02:40:21.310Z,4.56
2019-02-18T02:41:21.263Z,4.67
2019-02-18T02:42:21.269Z,4.61
2019-02-18T02:43:21.239Z,4.59
2019-02-18T02:44:21.224Z,4.65
2019-02-18T02:45:21.244Z,4.62
2019-02-18T02:46:21.204Z,4.62
2019-02-18T02:47:21.199Z,4.50
2019-02-18T02:48:21.185Z,4.54
2019-02-18T02:49:21.197Z,4.54
2019-02-18T02:50:21.183Z,4.51
2019-02-18T02:51:21.189Z,4.53
2019-02-18T02:52:21.154Z,4.56
2019-02-18T02:53:21.134Z,4.54
2019-02-18T02:54:21.138Z,4.51
2019-02-18T02:55:21.116Z,4.46
2019-02-18T02:56:21.152Z,4.51
2019-02-18T02:57:21.091Z,4.49
2019-02-18T02:58:21.107Z,4.50
2019-02-18T02:59:21.072Z,4.46
2019-02-18T03:00:21.064Z,4.51
2019-02-18T03:01:21.049Z,4.39
2019-02-18T03:02:21.057Z,4.43
2019-02-18T03:03:21.094Z,4.44
2019-02-18T03:04:21.011Z,4.39
2019-02-18T03:05:21.023Z,4.51
2019-02-18T03:06:20.997Z,4.47
2019-02-18T03:07:21.013Z,4.39
2019-02-18T03:08:21.161Z,4.44
2019-02-18T03:09:20.969Z,4.44
2019-02-18T03:10:20.982Z,4.59
2019-02-18T03:11:20.944Z,4.57
2019-02-18T03:12:20.963Z,4.67
2019-02-18T03:13:20.963Z,4.68
2019-02-18T03:14:20.911Z,4.68
2019-02-18T03:15:20.914Z,4.83
2019-02-18T03:16:20.905Z,4.83
2019-02-18T03:17:20.938Z,4.87
2019-02-18T03:18:20.888Z,4.93
2019-02-18T03:19:20.869Z,4.93
2019-02-18T03:20:20.863Z,5.01
2019-02-18T03:21:20.843Z,4.93
2019-02-18T03:22:20.828Z,5.06
2019-02-18T03:23:20.842Z,5.06
2019-02-18T03:24:20.807Z,5.08
2019-02-18T03:25:20.803Z,5.11
2019-02-18T03:26:20.789Z,5.11
2019-02-18T03:27:20.775Z,5.12
2019-02-18T03:28:20.789Z,5.12
2019-02-18T03:29:20.788Z,5.26
2019-02-18T03:30:20.741Z,5.23
2019-02-18T03:31:20.736Z,5.29
2019-02-18T03:32:20.748Z,5.26
2019-02-18T03:33:20.760Z,5.32
2019-02-18T03:34:20.726Z,5.32
2019-02-18T03:35:20.686Z,5.37
2019-02-18T03:36:20.686Z,5.38
2019-02-18T03:37:20.667Z,5.37
2019-02-18T03:38:30.873Z,5.38
2019-02-18T03:39:21.688Z,5.33
2019-02-18T03:40:20.662Z,5.37
2019-02-18T03:41:20.627Z,5.40
2019-02-18T03:42:20.613Z,5.41
2019-02-18T03:43:20.614Z,5.38
2019-02-18T03:44:20.621Z,5.49
2019-02-18T03:45:20.607Z,5.42
2019-02-18T03:46:20.572Z,5.49
2019-02-18T03:47:20.571Z,5.49
2019-02-18T03:48:20.553Z,5.48
2019-02-18T03:49:20.542Z,5.62
2019-02-18T03:50:20.534Z,5.58
2019-02-18T03:51:20.560Z,5.69
2019-02-18T03:52:20.515Z,5.55
2019-02-18T03:53:20.509Z,5.70
2019-02-18T03:54:20.494Z,5.63
2019-02-18T03:55:20.483Z,5.75
2019-02-18T03:56:20.475Z,5.75
2019-02-18T03:57:20.479Z,5.78
2019-02-18T03:58:20.472Z,5.78
2019-02-18T03:59:20.485Z,5.87
2019-02-18T04:00:20.429Z,5.87
2019-02-18T04:01:20.423Z,5.92
2019-02-18T04:02:20.410Z,5.95
2019-02-18T04:03:20.419Z,6.03
2019-02-18T04:04:20.388Z,5.98
2019-02-18T04:05:20.371Z,5.96
2019-02-18T04:06:20.369Z,6.02
2019-02-18T04:07:20.413Z,5.95
2019-02-18T04:08:20.446Z,5.93
2019-02-18T04:09:20.346Z,5.93
2019-02-18T04:10:20.331Z,5.98
2019-02-18T04:11:20.309Z,5.98
2019-02-18T04:12:20.315Z,5.93
2019-02-18T04:13:20.298Z,5.92
2019-02-18T04:14:20.306Z,5.88
2019-02-18T04:15:20.277Z,5.85
2019-02-18T04:16:20.270Z,5.85
2019-02-18T04:17:20.245Z,5.78
2019-02-18T04:18:20.239Z,5.70
2019-02-18T04:19:20.233Z,5.70
2019-02-18T04:20:20.242Z,5.73
2019-02-18T04:21:20.209Z,5.63
2019-02-18T04:22:20.217Z,5.60
2019-02-18T04:23:20.187Z,5.52
2019-02-18T04:24:20.191Z,5.56
2019-02-18T04:25:20.195Z,5.48
2019-02-18T04:26:20.200Z,5.40
2019-02-18T04:27:20.156Z,5.41
2019-02-18T04:28:20.144Z,5.42
2019-02-18T04:29:20.122Z,5.49
2019-02-18T04:30:20.120Z,5.37
2019-02-18T04:31:20.124Z,5.32
2019-02-18T04:32:20.101Z,5.37
2019-02-18T04:33:20.084Z,5.24
2019-02-18T04:34:20.064Z,5.26
2019-02-18T04:35:20.066Z,5.29
2019-02-18T04:36:20.078Z,5.12
2019-02-18T04:37:20.049Z,5.17
2019-02-18T04:38:20.032Z,5.08
2019-02-18T04:39:20.020Z,5.12
2019-02-18T04:40:20.019Z,5.14
2019-02-18T04:41:19.997Z,5.19
2019-02-18T04:42:20.009Z,5.05
2019-02-18T04:43:19.995Z,5.06
2019-02-18T04:44:19.968Z,5.06
2019-02-18T04:45:19.964Z,5.06
2019-02-18T04:46:19.977Z,5.04
2019-02-18T04:47:19.939Z,5.08
2019-02-18T04:48:19.977Z,5.09
2019-02-18T04:49:19.913Z,5.19
2019-02-18T04:50:19.914Z,5.08
2019-02-18T04:51:19.890Z,5.12
2019-02-18T04:52:19.876Z,5.06
2019-02-18T04:53:19.870Z,5.08
2019-02-18T04:54:19.873Z,5.14
2019-02-18T04:55:19.846Z,5.08
2019-02-18T04:56:19.848Z,5.17
2019-02-18T04:57:19.831Z,5.11
2019-02-18T04:58:19.815Z,5.20
2019-02-18T04:59:19.837Z,5.20
2019-02-18T05:00:19.797Z,5.22
2019-02-18T05:01:19.799Z,5.29
2019-02-18T05:02:19.816Z,5.33
2019-02-18T05:03:19.786Z,5.33
2019-02-18T05:04:19.806Z,5.45
2019-02-18T05:05:19.790Z,5.44
2019-02-18T05:06:19.748Z,5.40
2019-02-18T05:07:19.725Z,5.47
2019-02-18T05:08:19.706Z,5.52
2019-02-18T05:09:19.706Z,5.60
2019-02-18T05:10:19.718Z,5.63
2019-02-18T05:11:19.695Z,5.59
2019-02-18T05:12:19.666Z,5.65
2019-02-18T05:13:19.663Z,5.60
2019-02-18T05:14:19.649Z,5.56
2019-02-18T05:15:19.649Z,5.48
2019-02-18T05:16:19.658Z,5.58
2019-02-18T05:17:19.613Z,5.59
2019-02-18T05:18:19.606Z,5.60
2019-02-18T05:19:19.604Z,5.59
2019-02-18T05:20:19.582Z,5.63
2019-02-18T05:21:19.598Z,5.60
2019-02-18T05:22:19.596Z,5.65
2019-02-18T05:23:19.552Z,5.73
2019-02-18T05:24:19.549Z,5.73
2019-02-18T05:25:19.552Z,5.70
2019-02-18T05:26:19.541Z,5.77
2019-02-18T05:27:19.527Z,5.74
2019-02-18T05:28:19.526Z,5.67
2019-02-18T05:29:19.490Z,5.73
2019-02-18T05:30:19.489Z,5.73
2019-02-18T05:31:19.463Z,5.75
2019-02-18T05:32:19.468Z,5.69
2019-02-18T05:33:19.483Z,5.73
2019-02-18T05:34:19.435Z,5.67
2019-02-18T05:35:19.488Z,5.62
2019-02-18T05:36:19.422Z,5.62
2019-02-18T05:37:19.408Z,5.69
2019-02-18T05:38:19.396Z,5.58
2019-02-18T05:39:19.416Z,5.58
2019-02-18T05:40:19.378Z,5.60
2019-02-18T05:41:19.364Z,5.60
2019-02-18T05:42:19.377Z,5.65
2019-02-18T05:43:19.349Z,5.67
2019-02-18T05:44:19.359Z,5.65
2019-02-18T05:45:19.320Z,5.59
2019-02-18T05:46:19.356Z,5.59
2019-02-18T05:47:19.302Z,5.60
2019-02-18T05:48:19.302Z,5.60
2019-02-18T05:49:19.291Z,5.58
2019-02-18T05:50:19.317Z,5.56
2019-02-18T05:51:19.252Z,5.52
2019-02-18T05:52:19.246Z,5.45
2019-02-18T05:53:19.247Z,5.40
2019-02-18T05:54:19.226Z,5.40
2019-02-18T05:55:19.350Z,5.42
2019-02-18T05:56:19.258Z,5.40
2019-02-18T05:57:19.266Z,5.27
2019-02-18T05:58:19.183Z,5.26
2019-02-18T05:59:19.188Z,5.27
2019-02-18T06:00:19.401Z,5.19
2019-02-18T06:01:19.162Z,5.12
2019-02-18T06:02:19.177Z,5.12
2019-02-18T06:03:19.127Z,5.12
2019-02-18T06:04:19.140Z,5.17
2019-02-18T06:05:19.100Z,5.09
2019-02-18T06:06:19.125Z,5.09
2019-02-18T06:07:19.125Z,5.12
2019-02-18T06:08:19.093Z,5.05
2019-02-18T06:09:29.027Z,4.93
2019-02-18T06:10:20.055Z,4.96
2019-02-18T06:11:19.126Z,4.99
2019-02-18T06:12:19.141Z,4.88
2019-02-18T06:13:19.075Z,4.96
2019-02-18T06:14:19.045Z,4.91
2019-02-18T06:15:18.999Z,4.94
2019-02-18T06:16:19.002Z,4.83
2019-02-18T06:17:18.986Z,4.83
2019-02-18T06:18:19.005Z,4.80
2019-02-18T06:19:18.969Z,4.74
2019-02-18T06:20:19.028Z,4.72
2019-02-18T06:21:19.056Z,4.68
2019-02-18T06:22:19.024Z,4.74
2019-02-18T06:23:18.920Z,4.69
2019-02-18T06:24:18.962Z,4.69
2019-02-18T06:25:18.965Z,4.68
2019-02-18T06:26:18.993Z,4.64
2019-02-18T06:27:18.933Z,4.68
2019-02-18T06:28:18.882Z,4.62
2019-02-18T06:29:18.945Z,4.69
2019-02-18T06:30:18.892Z,4.57
2019-02-18T06:31:18.850Z,4.59
2019-02-18T06:32:18.828Z,4.62
2019-02-18T06:33:18.819Z,4.56
2019-02-18T06:34:18.906Z,4.64
2019-02-18T06:35:18.836Z,4.59
2019-02-18T06:36:19.009Z,4.51
2019-02-18T06:37:18.969Z,4.49
2019-02-18T06:38:18.805Z,4.56
2019-02-18T06:39:18.776Z,4.57
2019-02-18T06:40:18.951Z,4.47
2019-02-18T06:41:18.730Z,4.53
2019-02-18T06:42:18.730Z,4.51
2019-02-18T06:43:18.736Z,4.49
2019-02-18T06:44:18.825Z,4.56
2019-02-18T06:45:18.687Z,4.64
2019-02-18T06:46:18.728Z,4.59
2019-02-18T06:47:18.740Z,4.62
2019-02-18T06:48:18.675Z,4.59
2019-02-18T06:49:18.668Z,4.65
2019-02-18T06:50:18.632Z,4.59
2019-02-18T06:51:18.678Z,4.54
2019-02-18T06:52:18.616Z,4.57
2019-02-18T06:53:18.599Z,4.50
2019-02-18T06:54:18.599Z,4.51
2019-02-18T06:55:18.576Z,4.54
2019-02-18T06:56:18.609Z,4.51
2019-02-18T06:57:18.575Z,4.47
2019-02-18T06:58:18.560Z,4.49
2019-02-18T06:59:18.580Z,4.47
2019-02-18T07:00:18.523Z,4.50
2019-02-18T07:01:18.518Z,4.56
2019-02-18T07:02:18.590Z,4.59
2019-02-18T07:03:18.714Z,4.53
2019-02-18T07:04:18.629Z,4.56
2019-02-18T07:05:18.472Z,4.56
2019-02-18T07:06:18.479Z,4.57
2019-02-18T07:07:18.487Z,4.64
2019-02-18T07:08:18.487Z,4.59
2019-02-18T07:09:18.441Z,4.56
2019-02-18T07:10:18.474Z,4.54
2019-02-18T07:11:18.410Z,4.62
2019-02-18T07:12:18.431Z,4.62
2019-02-18T07:13:18.391Z,4.61
2019-02-18T07:14:18.417Z,4.61
2019-02-18T07:15:18.410Z,4.67
2019-02-18T07:16:18.380Z,4.54
2019-02-18T07:17:18.363Z,4.57
2019-02-18T07:18:18.367Z,4.61
2019-02-18T07:19:18.477Z,4.67
2019-02-18T07:20:18.312Z,4.64
2019-02-18T07:21:18.363Z,4.71
2019-02-18T07:22:18.325Z,4.72
2019-02-18T07:23:18.295Z,4.72
2019-02-18T07:24:18.317Z,4.68
2019-02-18T07:25:18.612Z,4.68
2019-02-18T07:26:18.249Z,4.71
2019-02-18T07:27:18.287Z,4.64
2019-02-18T07:28:18.250Z,4.68
2019-02-18T07:29:18.268Z,4.69
2019-02-18T07:30:18.260Z,4.68
2019-02-18T07:31:18.245Z,4.59
2019-02-18T07:32:18.185Z,4.59
2019-02-18T07:33:18.199Z,4.67
2019-02-18T07:34:18.182Z,4.62
2019-02-18T07:35:18.193Z,4.61
2019-02-18T07:36:18.378Z,4.56
2019-02-18T07:37:18.162Z,4.57
2019-02-18T07:38:18.148Z,4.61
2019-02-18T07:39:18.211Z,4.59
2019-02-18T07:40:18.104Z,4.54
2019-02-18T07:41:18.139Z,4.68
2019-02-18T07:42:18.185Z,4.71
2019-02-18T07:43:18.076Z,4.72
2019-02-18T07:44:18.059Z,4.75
2019-02-18T07:45:18.354Z,4.74
2019-02-18T07:46:18.295Z,4.80
2019-02-18T07:47:18.179Z,4.83
2019-02-18T07:48:18.279Z,4.86
2019-02-18T07:49:18.194Z,4.83
2019-02-18T07:50:20.750Z,4.87
2019-02-18T07:51:18.090Z,4.96
2019-02-18T07:52:18.069Z,4.94
2019-02-18T07:53:18.038Z,4.91
2019-02-18T07:54:17.964Z,4.94
2019-02-18T07:55:17.984Z,4.96
2019-02-18T07:56:17.963Z,5.12
2019-02-18T07:57:17.951Z,5.09
2019-02-18T07:58:17.965Z,5.15
2019-02-18T07:59:17.923Z,5.11
2019-02-18T08:00:17.900Z,5.12
2019-02-18T08:01:18.011Z,5.14
2019-02-18T08:02:18.197Z,5.11
2019-02-18T08:03:17.981Z,5.20
2019-02-18T08:04:17.906Z,5.20
2019-02-18T08:05:18.009Z,5.29
2019-02-18T08:06:17.929Z,5.30
2019-02-18T08:07:17.907Z,5.26
2019-02-18T08:08:18.026Z,5.38
2019-02-18T08:09:17.847Z,5.42
2019-02-18T08:10:17.854Z,5.42
2019-02-18T08:11:17.804Z,5.42
2019-02-18T08:12:17.774Z,5.37
2019-02-18T08:13:17.766Z,5.42
2019-02-18T08:14:17.775Z,5.45
2019-02-18T08:15:17.768Z,5.42
2019-02-18T08:16:17.739Z,5.42
2019-02-18T08:17:17.767Z,5.42
2019-02-18T08:18:17.707Z,5.37
2019-02-18T08:19:17.750Z,5.40
2019-02-18T08:20:17.686Z,5.38
2019-02-18T08:21:17.683Z,5.40
2019-02-18T08:22:17.661Z,5.37
2019-02-18T08:23:17.680Z,5.37
2019-02-18T08:24:17.690Z,5.40
2019-02-18T08:25:17.635Z,5.40
2019-02-18T08:26:17.639Z,5.42
2019-02-18T08:27:18.355Z,5.40
2019-02-18T08:28:17.934Z,5.45
2019-02-18T08:29:17.633Z,5.42
2019-02-18T08:30:17.621Z,5.60
2019-02-18T08:31:17.733Z,5.48
2019-02-18T08:32:17.570Z,5.62
2019-02-18T08:33:17.551Z,5.60
2019-02-18T08:34:17.586Z,5.66
2019-02-18T08:35:17.539Z,5.75
2019-02-18T08:36:17.547Z,5.73
2019-02-18T08:37:17.505Z,5.84
2019-02-18T08:38:17.636Z,5.88
2019-02-18T08:39:17.614Z,5.87
2019-02-18T08:40:22.421Z,6.02
2019-02-18T08:41:18.519Z,6.08
2019-02-18T08:42:17.480Z,6.13
2019-02-18T08:43:17.441Z,6.02
2019-02-18T08:44:17.431Z,6.21
2019-02-18T08:45:17.427Z,6.19
2019-02-18T08:46:17.485Z,6.32
2019-02-18T08:47:17.450Z,6.39
2019-02-18T08:48:17.388Z,6.51
2019-02-18T08:49:17.416Z,6.64
2019-02-18T08:50:17.362Z,6.64
2019-02-18T08:51:17.367Z,6.68
2019-02-18T08:52:17.388Z,6.81
2019-02-18T08:53:17.451Z,6.93
2019-02-18T08:54:17.330Z,6.97
2019-02-18T08:55:17.321Z,6.91
2019-02-18T08:56:17.311Z,6.93
2019-02-18T08:57:17.299Z,7.05
2019-02-18T08:58:17.286Z,6.94
2019-02-18T08:59:17.324Z,7.08
2019-02-18T09:00:17.325Z,6.99
2019-02-18T09:01:17.247Z,7.11
2019-02-18T09:02:17.238Z,7.09
2019-02-18T09:03:17.294Z,7.08
2019-02-18T09:04:17.220Z,7.09
2019-02-18T09:05:17.360Z,7.05
2019-02-18T09:06:17.286Z,7.05
2019-02-18T09:07:17.180Z,7.09
2019-02-18T09:08:17.197Z,7.16
2019-02-18T09:09:17.165Z,7.24
2019-02-18T09:10:17.213Z,7.32
2019-02-18T09:11:17.816Z,7.32
2019-02-18T09:12:17.134Z,7.36
2019-02-18T09:13:17.128Z,7.36
2019-02-18T09:14:17.131Z,7.44
2019-02-18T09:15:17.110Z,7.52
2019-02-18T09:16:17.091Z,7.51
2019-02-18T09:17:17.121Z,7.42
2019-02-18T09:18:17.065Z,7.47
2019-02-18T09:19:17.064Z,7.47
2019-02-18T09:20:17.056Z,7.48
2019-02-18T09:21:17.030Z,7.47
2019-02-18T09:22:17.023Z,7.55
2019-02-18T09:23:17.034Z,7.55
2019-02-18T09:24:17.015Z,7.55
2019-02-18T09:25:17.018Z,7.62
2019-02-18T09:26:16.980Z,7.63
2019-02-18T09:27:16.995Z,7.70
2019-02-18T09:28:17.043Z,7.76
2019-02-18T09:29:17.029Z,7.71
2019-02-18T09:30:16.960Z,7.67
2019-02-18T09:31:16.957Z,7.69
2019-02-18T09:32:16.961Z,7.66
2019-02-18T09:33:17.029Z,7.77
2019-02-18T09:34:16.915Z,7.69
2019-02-18T09:35:16.885Z,7.76
2019-02-18T09:36:16.891Z,7.86
2019-02-18T09:37:16.882Z,7.84
2019-02-18T09:38:24.323Z,7.82
2019-02-18T09:39:17.899Z,7.85
2019-02-18T09:40:16.826Z,7.82
2019-02-18T09:41:16.821Z,7.82
2019-02-18T09:42:16.809Z,7.82
2019-02-18T09:43:16.798Z,7.82
2019-02-18T09:44:16.796Z,7.94
2019-02-18T09:45:16.806Z,7.94
2019-02-18T09:46:16.761Z,7.91
2019-02-18T09:47:16.762Z,7.92
2019-02-18T09:48:16.744Z,7.89
2019-02-18T09:49:16.770Z,7.92
2019-02-18T09:50:16.754Z,7.85
2019-02-18T09:51:16.716Z,7.84
2019-02-18T09:52:16.697Z,7.81
2019-02-18T09:53:16.701Z,7.79
2019-02-18T09:54:16.688Z,7.77
2019-02-18T09:55:16.680Z,7.70
2019-02-18T09:56:16.803Z,7.84
2019-02-18T09:57:16.648Z,7.88
2019-02-18T09:58:16.639Z,7.95
2019-02-18T09:59:16.632Z,7.89
2019-02-18T10:00:16.625Z,8.04
2019-02-18T10:01:16.625Z,8.03
2019-02-18T10:02:16.612Z,8.09
2019-02-18T10:03:16.585Z,8.13
2019-02-18T10:04:16.581Z,8.20
2019-02-18T10:05:16.559Z,8.18
2019-02-18T10:06:16.568Z,8.18
2019-02-18T10:07:16.647Z,8.12
2019-02-18T10:08:16.554Z,8.06
2019-02-18T10:09:16.535Z,8.09
2019-02-18T10:10:16.503Z,8.10
2019-02-18T10:11:16.585Z,8.09
2019-02-18T10:12:18.703Z,8.06
2019-02-18T10:13:16.514Z,8.09
2019-02-18T10:14:16.466Z,8.06
2019-02-18T10:15:16.455Z,8.03
2019-02-18T10:16:16.458Z,8.09
2019-02-18T10:17:16.428Z,7.96
2019-02-18T10:18:16.416Z,7.99
2019-02-18T10:19:16.446Z,8.07
2019-02-18T10:20:16.410Z,8.10
2019-02-18T10:21:16.395Z,8.20
2019-02-18T10:22:16.396Z,8.22
2019-02-18T10:23:16.375Z,8.25
2019-02-18T10:24:16.396Z,8.25
2019-02-18T10:25:16.347Z,8.25
2019-02-18T10:26:16.339Z,8.37
2019-02-18T10:27:16.345Z,8.43
2019-02-18T10:28:16.351Z,8.45
2019-02-18T10:29:16.346Z,8.50
2019-02-18T10:30:16.306Z,8.47
2019-02-18T10:31:16.895Z,8.52
2019-02-18T10:32:16.319Z,8.50
2019-02-18T10:33:16.267Z,8.47
2019-02-18T10:34:16.250Z,8.57
2019-02-18T10:35:16.294Z,8.46
2019-02-18T10:36:16.249Z,8.50
2019-02-18T10:37:16.218Z,8.57
2019-02-18T10:38:16.196Z,8.55
2019-02-18T10:39:16.188Z,8.65
2019-02-18T10:40:16.190Z,8.68
2019-02-18T10:41:16.176Z,8.71
2019-02-18T10:42:16.149Z,8.83
2019-02-18T10:43:16.140Z,8.76
2019-02-18T10:44:16.142Z,8.76
2019-02-18T10:45:16.183Z,8.80
2019-02-18T10:46:16.155Z,8.88
2019-02-18T10:47:16.160Z,8.80
2019-02-18T10:48:16.119Z,8.83
2019-02-18T10:49:19.738Z,8.91
2019-02-18T10:50:16.080Z,8.83
2019-02-18T10:51:16.056Z,8.94
2019-02-18T10:52:16.088Z,8.98
2019-02-18T10:53:16.049Z,8.89
2019-02-18T10:54:16.019Z,8.94
2019-02-18T10:55:16.008Z,9.13
2019-02-18T10:56:16.003Z,9.04
2019-02-18T10:57:16.000Z,9.04
2019-02-18T10:58:16.007Z,9.10
2019-02-18T10:59:15.979Z,9.24
2019-02-18T11:00:16.026Z,9.10
2019-02-18T11:01:15.965Z,9.24
2019-02-18T11:02:15.957Z,9.20
2019-02-18T11:03:15.985Z,9.26
2019-02-18T11:04:15.961Z,9.32
2019-02-18T11:05:15.907Z,9.26
2019-02-18T11:06:15.894Z,9.35
2019-02-18T11:07:15.890Z,9.44
2019-02-18T11:08:15.900Z,9.52
2019-02-18T11:09:15.858Z,9.63
2019-02-18T11:10:15.899Z,9.63
2019-02-18T11:11:17.227Z,9.63
2019-02-18T11:12:15.844Z,9.68
2019-02-18T11:13:15.818Z,9.77
2019-02-18T11:14:15.848Z,9.74
2019-02-18T11:15:15.803Z,9.81
2019-02-18T11:16:15.819Z,9.75
2019-02-18T11:17:15.763Z,9.81
2019-02-18T11:18:15.765Z,9.98
2019-02-18T11:19:17.611Z,9.92
2019-02-18T11:20:15.778Z,10.09
2019-02-18T11:21:15.735Z,10.09
2019-02-18T11:22:15.738Z,10.11
2019-02-18T11:23:15.713Z,10.02
2019-02-18T11:24:15.698Z,9.96
2019-02-18T11:25:15.723Z,10.02
2019-02-18T11:26:15.681Z,10.11
2019-02-18T11:27:15.722Z,10.20
2019-02-18T11:28:15.669Z,10.14
2019-02-18T11:29:15.673Z,10.20
2019-02-18T11:30:15.667Z,10.26
2019-02-18T11:31:15.705Z,10.28
2019-02-18T11:32:15.631Z,10.31
2019-02-18T11:33:15.609Z,10.34
2019-02-18T11:34:15.652Z,10.46
2019-02-18T11:35:15.589Z,10.39
2019-02-18T11:36:15.597Z,10.36
2019-02-18T11:37:15.561Z,10.47
2019-02-18T11:38:15.539Z,10.36
2019-02-18T11:39:15.524Z,10.34
2019-02-18T11:40:15.574Z,10.44
2019-02-18T11:41:15.511Z,10.43
2019-02-18T11:42:15.520Z,10.54
2019-02-18T11:43:15.508Z,10.58
2019-02-18T11:44:15.500Z,10.69
2019-02-18T11:45:15.475Z,10.75
2019-02-18T11:46:15.514Z,10.76
2019-02-18T11:47:15.459Z,10.81
2019-02-18T11:48:15.455Z,10.76
2019-02-18T11:49:15.434Z,10.91
2019-02-18T11:50:15.488Z,10.90
2019-02-18T11:51:15.395Z,11.06
2019-02-18T11:52:15.432Z,11.11
2019-02-18T11:53:15.443Z,11.19
2019-02-18T11:54:15.388Z,11.20
2019-02-18T11:55:15.481Z,11.17
2019-02-18T11:56:15.385Z,11.17
2019-02-18T11:57:15.390Z,11.16
2019-02-18T11:58:15.322Z,11.26
2019-02-18T11:59:24.007Z,11.36
2019-02-18T12:00:16.325Z,11.44
2019-02-18T12:01:15.305Z,11.48
2019-02-18T12:02:15.315Z,11.59
2019-02-18T12:03:15.274Z,11.59
2019-02-18T12:04:15.284Z,11.56
2019-02-18T12:05:15.269Z,11.64
2019-02-18T12:06:15.272Z,11.59
2019-02-18T12:07:15.262Z,11.66
2019-02-18T12:08:15.230Z,11.66
2019-02-18T12:09:17.749Z,11.64
2019-02-18T12:10:15.194Z,11.67
2019-02-18T12:11:15.207Z,11.78
2019-02-18T12:12:15.199Z,11.84
2019-02-18T12:13:15.190Z,11.79
2019-02-18T12:14:15.220Z,11.87
2019-02-18T12:15:15.145Z,11.90
2019-02-18T12:16:15.202Z,12.08
2019-02-18T12:17:20.584Z,12.16
2019-02-18T12:18:16.206Z,12.30
2019-02-18T12:19:15.120Z,12.29
2019-02-18T12:20:15.108Z,12.36
2019-02-18T12:21:15.095Z,12.44
2019-02-18T12:22:15.083Z,12.54
2019-02-18T12:23:15.067Z,12.54
2019-02-18T12:24:15.063Z,12.48
2019-02-18T12:25:15.033Z,12.55
2019-02-18T12:26:15.051Z,12.62
2019-02-18T12:27:15.032Z,12.63
2019-02-18T12:28:15.094Z,12.63
2019-02-18T12:29:14.992Z,12.69
2019-02-18T12:30:14.998Z,12.84
2019-02-18T12:31:14.975Z,12.79
2019-02-18T12:32:14.995Z,12.91
2019-02-18T12:33:14.982Z,13.04
2019-02-18T12:34:14.951Z,13.04
2019-02-18T12:35:14.924Z,13.07
2019-02-18T12:36:14.937Z,13.13
2019-02-18T12:37:14.931Z,13.25
2019-02-18T12:38:17.332Z,13.25
2019-02-18T12:39:14.905Z,13.36
2019-02-18T12:40:14.868Z,13.46
2019-02-18T12:41:14.877Z,13.44
2019-02-18T12:42:14.861Z,13.57
2019-02-18T12:43:14.928Z,13.62
2019-02-18T12:44:14.829Z,13.66
2019-02-18T12:45:14.825Z,13.62
2019-02-18T12:46:16.098Z,13.61
2019-02-18T12:47:14.803Z,13.62
2019-02-18T12:48:14.806Z,13.80
2019-02-18T12:49:14.808Z,13.79
2019-02-18T12:50:14.777Z,13.84
2019-02-18T12:51:14.753Z,13.87
2019-02-18T12:52:14.744Z,13.91
2019-02-18T12:53:14.744Z,14.02
2019-02-18T12:54:14.756Z,14.04
2019-02-18T12:55:14.995Z,14.04
2019-02-18T12:56:14.703Z,14.11
2019-02-18T12:57:14.709Z,14.16
2019-02-18T12:58:14.708Z,14.20
2019-02-18T12:59:14.694Z,14.17
2019-02-18T13:00:14.872Z,14.21
2019-02-18T13:01:14.660Z,14.30
2019-02-18T13:02:14.664Z,14.35
2019-02-18T13:03:14.631Z,14.35
2019-02-18T13:04:14.617Z,14.39
2019-02-18T13:05:14.659Z,14.34
2019-02-18T13:06:14.628Z,14.48
2019-02-18T13:07:14.580Z,14.42
2019-02-18T13:08:14.635Z,14.45
2019-02-18T13:09:14.577Z,14.46
2019-02-18T13:10:14.549Z,14.56
2019-02-18T13:11:14.569Z,14.52
2019-02-18T13:12:14.545Z,14.56
2019-02-18T13:13:14.559Z,14.57
2019-02-18T13:14:14.530Z,14.67